createdAt,value
2023-04-03T00:02:06.616Z,-1.20
2023-04-03T00:04:36.914Z,-1.30
2023-04-03T00:07:08.626Z,-1.30
2023-04-03T00:09:40.905Z,-1.20
2023-04-03T00:15:52.810Z,-1.20
2023-04-03T00:25:06.462Z,-1.30
2023-04-03T00:27:36.956Z,-1.30
2023-04-03T00:30:09.765Z,-1.20
2023-04-03T00:32:40.035Z,-1.20
2023-04-03T00:35:12.870Z,-1.30
2023-04-03T00:37:42.532Z,-1.30
2023-04-03T00:40:16.613Z,-1.40
2023-04-03T00:42:48.888Z,-1.40
2023-04-03T00:45:32.863Z,-1.50
2023-04-03T00:48:05.015Z,-1.40
2023-04-03T00:50:36.559Z,-1.50
2023-04-03T00:53:13.636Z,-1.50
2023-04-03T00:55:49.603Z,-1.50
2023-04-03T00:58:25.347Z,-1.50
2023-04-03T01:01:02.596Z,-1.60
2023-04-03T01:03:35.818Z,-1.60
2023-04-03T01:06:08.863Z,-1.60
2023-04-03T01:08:42.837Z,-1.50
2023-04-03T01:11:16.106Z,-1.40
2023-04-03T01:13:52.472Z,-1.20
2023-04-03T01:16:38.898Z,-1.00
2023-04-03T01:19:15.824Z,-0.90
2023-04-03T01:22:08.663Z,-0.90
2023-04-03T01:24:55.404Z,-0.90
2023-04-03T01:27:35.282Z,-0.90
2023-04-03T01:30:12.640Z,-1.00
2023-04-03T01:32:56.831Z,-0.80
2023-04-03T01:38:34.541Z,-0.80
2023-04-03T01:44:39.662Z,-0.70
2023-04-03T01:47:42.682Z,-0.50
2023-04-03T01:50:38.006Z,-0.40
2023-04-03T01:53:15.436Z,-0.30
2023-04-03T01:55:48.103Z,-0.20
2023-04-03T01:58:19.488Z,-0.30
2023-04-03T02:00:51.886Z,-0.20
2023-04-03T02:03:30.361Z,-0.30
2023-04-03T02:06:05.009Z,-0.30
2023-04-03T02:08:44.575Z,-0.40
2023-04-03T02:11:19.404Z,-0.30
2023-04-03T02:13:55.098Z,-0.30
2023-04-03T02:16:28.391Z,-0.20
2023-04-03T02:18:59.913Z,-0.20
2023-04-03T02:21:37.435Z,0.10
2023-04-03T02:24:12.556Z,0.20
2023-04-03T02:27:03.893Z,0.40
2023-04-03T02:29:56.944Z,0.50
2023-04-03T02:32:50.421Z,0.50
2023-04-03T02:38:52.480Z,0.30
2023-04-03T02:41:44.252Z,0.30
2023-04-03T02:44:38.726Z,0.40
2023-04-03T02:47:15.335Z,0.30
2023-04-03T02:49:57.860Z,0.20
2023-04-03T02:52:32.455Z,0.30
2023-04-03T02:55:29.473Z,0.10
2023-04-03T02:58:08.603Z,0.20
2023-04-03T03:00:44.344Z,0.20
2023-04-03T03:03:32.023Z,0.40
2023-04-03T03:06:25.834Z,0.50
2023-04-03T03:09:16.144Z,0.60
2023-04-03T03:11:49.167Z,0.60
2023-04-03T03:14:24.775Z,0.70
2023-04-03T03:16:55.920Z,0.80
2023-04-03T03:19:27.145Z,0.70
2023-04-03T03:22:06.398Z,0.80
2023-04-03T03:24:40.235Z,0.80
2023-04-03T03:27:17.356Z,0.70
2023-04-03T03:29:48.610Z,0.60
2023-04-03T03:32:18.873Z,0.50
2023-04-03T03:34:50.697Z,0.60
2023-04-03T03:37:22.138Z,0.40
2023-04-03T03:39:52.294Z,0.50
2023-04-03T03:42:25.196Z,0.40
2023-04-03T03:44:57.489Z,0.60
2023-04-03T03:47:27.959Z,0.70
2023-04-03T03:50:00.217Z,0.70
2023-04-03T03:52:31.507Z,0.70
2023-04-03T03:55:03.791Z,0.60
2023-04-03T03:57:37.855Z,0.60
2023-04-03T04:00:13.173Z,0.60
2023-04-03T04:02:57.938Z,0.50
2023-04-03T04:05:37.621Z,0.40
2023-04-03T04:08:14.470Z,0.40
2023-04-03T04:10:54.332Z,0.50
2023-04-03T04:13:43.295Z,0.60
2023-04-03T04:16:25.160Z,0.50
2023-04-03T04:19:18.665Z,0.60
2023-04-03T04:21:58.203Z,0.60
2023-04-03T04:24:42.228Z,0.50
2023-04-03T04:27:29.827Z,0.70
2023-04-03T04:30:03.011Z,0.70
2023-04-03T04:32:39.530Z,0.70
2023-04-03T04:35:21.623Z,0.80
2023-04-03T04:37:57.345Z,0.80
2023-04-03T04:40:31.284Z,0.90
2023-04-03T04:43:04.639Z,0.80
2023-04-03T04:45:40.325Z,0.80
2023-04-03T04:48:10.865Z,0.80
2023-04-03T04:50:40.492Z,0.70
2023-04-03T04:53:11.250Z,0.70
2023-04-03T04:55:41.568Z,0.70
2023-04-03T04:58:12.684Z,0.70
2023-04-03T05:00:51.743Z,0.70
2023-04-03T05:03:21.702Z,0.80
2023-04-03T05:05:53.669Z,0.70
2023-04-03T05:08:24.155Z,0.80
2023-04-03T05:10:56.286Z,0.80
2023-04-03T05:13:29.755Z,0.80
2023-04-03T05:16:02.974Z,0.90
2023-04-03T05:18:33.535Z,0.90
2023-04-03T05:21:08.445Z,0.80
2023-04-03T05:23:38.863Z,0.90
2023-04-03T05:26:10.447Z,0.90
2023-04-03T05:28:43.057Z,1.00
2023-04-03T05:31:23.667Z,1.00
2023-04-03T05:34:06.781Z,1.00
2023-04-03T05:36:50.288Z,1.00
2023-04-03T05:39:21.426Z,1.00
2023-04-03T05:42:00.219Z,1.10
2023-04-03T05:44:31.980Z,1.00
2023-04-03T05:47:05.279Z,1.00
2023-04-03T05:49:34.888Z,0.90
2023-04-03T05:52:04.151Z,1.00
2023-04-03T05:54:35.587Z,1.10
2023-04-03T05:57:24.602Z,1.00
2023-04-03T05:59:55.119Z,1.00
2023-04-03T06:02:29.885Z,1.10
2023-04-03T06:05:00.207Z,1.20
2023-04-03T06:07:31.425Z,1.30
2023-04-03T06:10:01.038Z,1.30
2023-04-03T06:12:31.713Z,1.30
2023-04-03T06:15:02.222Z,1.50
2023-04-03T06:17:35.652Z,1.60
2023-04-03T06:20:04.980Z,1.60
2023-04-03T06:22:34.559Z,1.70
2023-04-03T06:25:07.354Z,1.70
2023-04-03T06:27:36.968Z,1.70
2023-04-03T06:30:08.294Z,1.80
2023-04-03T06:32:41.527Z,1.80
2023-04-03T06:35:11.296Z,1.90
2023-04-03T06:37:40.315Z,2.00
2023-04-03T06:40:13.827Z,2.00
2023-04-03T06:42:42.744Z,2.10
2023-04-03T06:45:15.153Z,2.10
2023-04-03T06:47:46.480Z,2.20
2023-04-03T06:50:16.583Z,2.20
2023-04-03T06:52:46.293Z,2.30
2023-04-03T06:55:15.416Z,2.40
2023-04-03T06:57:45.214Z,2.40
2023-04-03T07:00:17.362Z,2.50
2023-04-03T07:02:50.726Z,2.50
2023-04-03T07:05:22.100Z,2.50
2023-04-03T07:07:51.654Z,2.60
2023-04-03T07:10:21.568Z,2.70
2023-04-03T07:12:52.996Z,2.90
2023-04-03T07:15:29.066Z,2.90
2023-04-03T07:18:08.223Z,2.90
2023-04-03T07:20:43.376Z,3.00
2023-04-03T07:23:14.497Z,3.00
2023-04-03T07:25:56.075Z,3.20
2023-04-03T07:28:31.997Z,3.30
2023-04-03T07:31:05.581Z,3.40
2023-04-03T07:33:39.631Z,3.40
2023-04-03T07:36:11.225Z,3.50
2023-04-03T07:38:45.088Z,3.50
2023-04-03T07:41:19.495Z,3.50
2023-04-03T07:43:51.505Z,3.60
2023-04-03T07:46:26.772Z,3.90
2023-04-03T07:49:02.000Z,3.90
2023-04-03T07:51:31.617Z,4.00
2023-04-03T07:54:02.179Z,4.10
2023-04-03T07:56:33.990Z,4.10
2023-04-03T07:59:04.853Z,4.10
2023-04-03T08:01:42.045Z,4.20
2023-04-03T08:04:17.223Z,4.30
2023-04-03T08:06:53.603Z,4.40
2023-04-03T08:09:26.557Z,4.50
2023-04-03T08:11:55.903Z,4.50
2023-04-03T08:14:26.881Z,4.60
2023-04-03T08:17:01.296Z,4.70
2023-04-03T08:19:35.577Z,4.70
2023-04-03T08:22:12.538Z,4.70
2023-04-03T08:24:56.214Z,4.80
2023-04-03T08:27:33.144Z,4.90
2023-04-03T08:30:03.250Z,4.90
2023-04-03T08:32:40.081Z,4.90
2023-04-03T08:35:12.822Z,5.10
2023-04-03T08:37:48.357Z,5.20
2023-04-03T08:40:23.671Z,5.30
2023-04-03T08:43:06.050Z,5.20
2023-04-03T08:45:50.657Z,5.30
2023-04-03T08:48:25.164Z,5.50
2023-04-03T08:51:03.679Z,5.60
2023-04-03T08:53:36.988Z,5.60
2023-04-03T08:56:10.982Z,5.60
2023-04-03T08:58:48.815Z,5.60
2023-04-03T09:01:26.218Z,5.70
2023-04-03T09:04:00.732Z,5.80
2023-04-03T09:06:38.134Z,5.80
2023-04-03T09:09:27.969Z,6.00
2023-04-03T09:12:11.118Z,6.00
2023-04-03T09:14:47.560Z,6.00
2023-04-03T09:17:24.486Z,6.00
2023-04-03T09:20:01.298Z,6.00
2023-04-03T09:22:41.870Z,6.10
2023-04-03T09:25:18.332Z,6.40
2023-04-03T09:27:48.789Z,6.40
2023-04-03T09:30:19.719Z,6.40
2023-04-03T09:32:50.918Z,6.40
2023-04-03T09:35:36.186Z,6.30
2023-04-03T09:38:25.827Z,6.40
2023-04-03T09:41:08.944Z,6.50
2023-04-03T09:43:43.284Z,6.60
2023-04-03T09:46:34.530Z,6.60
2023-04-03T09:49:09.719Z,6.80
2023-04-03T09:51:43.470Z,6.80
2023-04-03T09:54:37.721Z,6.90
2023-04-03T09:57:14.784Z,6.90
2023-04-03T09:59:49.698Z,7.10
2023-04-03T10:02:34.344Z,7.50
2023-04-03T10:05:09.640Z,7.90
2023-04-03T10:07:46.435Z,8.50
2023-04-03T10:10:26.864Z,8.40
2023-04-03T10:13:10.555Z,8.90
2023-04-03T10:15:46.507Z,9.60
2023-04-03T10:18:31.702Z,9.90
2023-04-03T10:21:11.890Z,10.10
2023-04-03T10:23:53.064Z,10.20
2023-04-03T10:26:36.853Z,10.60
2023-04-03T10:29:15.577Z,10.50
2023-04-03T10:31:49.459Z,10.20
2023-04-03T10:34:26.519Z,10.60
2023-04-03T10:37:04.093Z,11.10
2023-04-03T10:39:41.229Z,10.80
2023-04-03T10:42:22.164Z,11.30
2023-04-03T10:45:21.929Z,12.20
2023-04-03T10:48:03.602Z,12.90
2023-04-03T10:50:42.642Z,13.10
2023-04-03T10:53:21.729Z,13.40
2023-04-03T10:56:01.068Z,13.70
2023-04-03T10:58:36.330Z,12.90
2023-04-03T11:01:12.091Z,13.00
2023-04-03T11:03:45.187Z,13.40
2023-04-03T11:06:17.794Z,13.80
2023-04-03T11:08:56.468Z,13.20
2023-04-03T11:11:32.114Z,13.00
2023-04-03T11:14:06.868Z,12.40
2023-04-03T11:16:51.017Z,13.50
2023-04-03T11:19:25.850Z,14.50
2023-04-03T11:21:59.517Z,13.90
2023-04-03T11:24:31.002Z,13.90
2023-04-03T11:27:02.766Z,13.60
2023-04-03T11:29:39.778Z,13.90
2023-04-03T11:32:18.861Z,14.30
2023-04-03T11:34:52.288Z,13.60
2023-04-03T11:37:30.027Z,13.30
2023-04-03T11:40:04.649Z,13.40
2023-04-03T11:42:38.944Z,13.80
2023-04-03T11:45:36.725Z,14.90
2023-04-03T11:48:23.321Z,14.60
2023-04-03T11:50:54.590Z,13.30
2023-04-03T11:53:37.944Z,13.60
2023-04-03T11:56:23.040Z,14.50
2023-04-03T11:59:21.939Z,15.60
2023-04-03T12:01:54.633Z,15.60
2023-04-03T12:04:26.143Z,15.60
2023-04-03T12:07:05.997Z,16.40
2023-04-03T12:09:55.686Z,15.70
2023-04-03T12:12:34.540Z,14.30
2023-04-03T12:15:52.541Z,14.70
2023-04-03T12:18:56.906Z,15.80
2023-04-03T12:21:27.797Z,16.00
2023-04-03T12:24:07.981Z,15.20
2023-04-03T12:26:48.716Z,15.80
2023-04-03T12:29:23.985Z,16.90
2023-04-03T12:32:07.766Z,17.10
2023-04-03T12:35:16.575Z,15.30
2023-04-03T12:38:22.797Z,15.90
2023-04-03T12:41:00.205Z,14.80
2023-04-03T12:43:55.870Z,14.00
2023-04-03T12:46:35.331Z,14.70
2023-04-03T12:49:20.656Z,15.60
2023-04-03T12:51:59.768Z,16.00
2023-04-03T17:02:13.046Z,15.80
